Wolf Creek Pass, CO

5:31 PM MDT on May 22, 2017 (GMT -0600)
Wolf Creek Pass

Weather History for KCPW - May, 2013

Change the Weather History Date:

Friday, May 17, 2013

  Actual Average (KALS) Record (KALS)
Temperature  
Mean Temperature 39 °F -  
Max Temperature 46 °F 68 °F 82 °F (2003)
Min Temperature 32 °F 33 °F 20 °F (1943)
Degree Days  
Heating Degree Days 26    
Moisture  
Dew Point 10 °F    
Average Humidity 31    
Maximum Humidity 44    
Minimum Humidity 17    
Precipitation  
Precipitation 0.00 in - - ()
Sea Level Pressure  
Sea Level Pressure 30.33 in    
Wind  
Wind Speed 17 mph (SW)    
Max Wind Speed 25 mph    
Max Gust Speed 46 mph    
Visibility 10 miles    
Events      
Averages and records for this station are not official NWS values.
T = Trace of Precipitation, MM = Missing Value Source: NWS Daily Summary

Daily Weather History Graph

Daily Weather History Graph

Search for Another Location

Airport or City:

Trip Planner

Search our weather history database for the weather conditions in past years. The results will help you decide how hot, cold, wet, or windy it might be!

Date:

Astronomy

May. 17, 2013 Rise Set
Actual Time 5:56 AM MDT 8:11 PM MDT
Civil Twilight 5:26 AM MDT 8:40 PM MDT
Nautical Twilight 4:50 AM MDT 9:17 PM MDT
Astronomical Twilight 4:11 AM MDT 9:56 PM MDT
Moon 12:27 PM MDT (5/17) 1:08 AM MDT (5/17)
Length of Visible Light 15h 14m
Length of Day
14h 15m
Waxing Crescent, 46% of the Moon is Illuminated
May 17
Waxing Crescent
May 17
First Quarter
May 24
Full
May 31
Last Quarter
Jun 8
New

Hourly Weather History & Observations

Time (MDT) Temp. Windchill Dew Point Humidity Pressure Visibility Wind Dir Wind Speed Gust Speed Precip Events Conditions
12:02 AM 41.0 °F 33.1 °F 12.2 °F 31% 30.33 in 10.0 mi SW 15.0 mph 23.0 mph N/A   Clear
12:22 AM 41.0 °F 32.5 °F 12.2 °F 31% 30.33 in 10.0 mi WSW 17.3 mph 26.5 mph N/A   Clear
12:42 AM 41.0 °F 32.8 °F 14.0 °F 33% 30.33 in 10.0 mi SW 16.1 mph 28.8 mph N/A   Clear
1:02 AM 41.0 °F 33.5 °F 14.0 °F 33% 30.33 in 10.0 mi SW 13.8 mph 23.0 mph N/A   Clear
1:22 AM 37.4 °F 28.5 °F 14.0 °F 38% 30.33 in 10.0 mi SW 15.0 mph 26.5 mph N/A   Clear
1:42 AM 37.4 °F 27.8 °F 14.0 °F 38% 30.33 in 10.0 mi SW 17.3 mph 24.2 mph N/A   Clear
2:02 AM 37.4 °F 27.5 °F 14.0 °F 38% 30.32 in 10.0 mi SSW 18.4 mph 28.8 mph N/A   Clear
2:22 AM 37.4 °F 26.9 °F 14.0 °F 38% 30.32 in 10.0 mi WSW 20.7 mph 35.7 mph N/A   Clear
2:42 AM 37.4 °F 26.6 °F 14.0 °F 38% 30.32 in 10.0 mi SW 21.9 mph 36.8 mph N/A   Clear
3:02 AM 35.6 °F 24.5 °F 14.0 °F 41% 30.32 in 10.0 mi SW 20.7 mph 28.8 mph N/A   Clear
3:22 AM 35.6 °F 24.0 °F 14.0 °F 41% 30.31 in 10.0 mi SW 23.0 mph 28.8 mph N/A   Clear
3:42 AM 35.6 °F 24.8 °F 12.2 °F 38% 30.31 in 10.0 mi SW 19.6 mph 31.1 mph N/A   Clear
4:02 AM 33.8 °F 22.2 °F 12.2 °F 41% 30.31 in 10.0 mi SW 20.7 mph 33.4 mph N/A   Clear
4:22 AM 33.8 °F 21.9 °F 12.2 °F 41% 30.31 in 10.0 mi SW 21.9 mph 27.6 mph N/A   Clear
4:42 AM 33.8 °F 21.6 °F 12.2 °F 41% 30.31 in 10.0 mi SW 23.0 mph 31.1 mph N/A   Clear
5:02 AM 33.8 °F 21.9 °F 12.2 °F 41% 30.31 in 10.0 mi SW 21.9 mph 28.8 mph N/A   Clear
5:22 AM 33.8 °F 22.5 °F 10.4 °F 38% 30.31 in 10.0 mi SW 19.6 mph 28.8 mph N/A   Clear
5:42 AM 33.8 °F 22.2 °F 10.4 °F 38% 30.31 in 10.0 mi SW 20.7 mph 28.8 mph N/A   Clear
6:02 AM 32.0 °F 20.1 °F 12.2 °F 44% 30.32 in 10.0 mi SW 19.6 mph 26.5 mph N/A   Clear
6:22 AM 32.0 °F 20.8 °F 12.2 °F 44% 30.32 in 10.0 mi SW 17.3 mph 23.0 mph N/A   Clear
6:42 AM 33.8 °F 23.5 °F 12.2 °F 41% 30.33 in 10.0 mi SW 16.1 mph 23.0 mph N/A   Clear
7:02 AM 33.8 °F 23.9 °F 12.2 °F 41% 30.34 in 10.0 mi SW 15.0 mph 23.0 mph N/A   Clear
7:22 AM 33.8 °F 22.8 °F 12.2 °F 41% 30.34 in 10.0 mi SW 18.4 mph 24.2 mph N/A   Clear
7:42 AM 35.6 °F 26.2 °F 12.2 °F 38% 30.35 in 10.0 mi SW 15.0 mph 21.9 mph N/A   Clear
8:02 AM 35.6 °F 25.2 °F 12.2 °F 38% 30.35 in 10.0 mi SW 18.4 mph 25.3 mph N/A   Clear
8:22 AM 35.6 °F 25.5 °F 14.0 °F 41% 30.35 in 10.0 mi SW 17.3 mph 23.0 mph N/A   Clear
8:42 AM 37.4 °F 30.8 °F 14.0 °F 38% 30.36 in 10.0 mi SSW 9.2 mph 17.3 mph N/A   Clear
9:02 AM 37.4 °F 28.5 °F 14.0 °F 38% 30.36 in 10.0 mi SSW 15.0 mph 19.6 mph N/A   Clear
9:22 AM 39.2 °F 33.0 °F 14.0 °F 36% 30.36 in 10.0 mi SW 9.2 mph 19.6 mph N/A   Clear
9:42 AM 41.0 °F 34.7 °F 15.8 °F 36% 30.36 in 10.0 mi WSW 10.4 mph - N/A   Clear
10:02 AM 41.0 °F 39.0 °F 14.0 °F 33% 30.36 in 10.0 mi South 3.5 mph - N/A   Clear
10:22 AM 41.0 °F 35.8 °F 15.8 °F 36% 30.36 in 10.0 mi SSW 8.1 mph - N/A   Clear
10:42 AM 41.0 °F 33.9 °F 14.0 °F 33% 30.36 in 10.0 mi SSW 12.7 mph 28.8 mph N/A   Clear
11:02 AM 41.0 °F 34.7 °F 15.8 °F 36% 30.36 in 10.0 mi SSW 10.4 mph 25.3 mph N/A   Clear
11:22 AM 41.0 °F 33.5 °F 12.2 °F 31% 30.36 in 10.0 mi SSW 13.8 mph 25.3 mph N/A   Clear
11:42 AM 41.0 °F 33.1 °F 10.4 °F 29% 30.36 in 10.0 mi SSW 15.0 mph 27.6 mph N/A   Clear
12:02 PM 42.8 °F 37.5 °F 12.2 °F 29% 30.36 in 10.0 mi SW 9.2 mph 24.2 mph N/A   Clear
12:22 PM 42.8 °F 36.6 °F 12.2 °F 29% 30.36 in 10.0 mi SSW 11.5 mph 28.8 mph N/A   Clear
12:42 PM 42.8 °F 36.2 °F 14.0 °F 31% 30.36 in 10.0 mi South 12.7 mph 26.5 mph N/A   Clear
1:02 PM 42.8 °F 34.3 °F 14.0 °F 31% 30.36 in 10.0 mi SSW 19.6 mph 33.4 mph N/A   Clear
1:42 PM 42.8 °F 33.8 °F 14.0 °F 31% 30.34 in 10.0 mi SSW 21.9 mph 35.7 mph N/A   Clear
2:02 PM 44.6 °F 36.4 °F 12.2 °F 27% 30.35 in 10.0 mi SSW 20.7 mph 34.5 mph N/A   Clear
2:22 PM 44.6 °F 36.9 °F 10.4 °F 25% 30.34 in 10.0 mi SSW 18.4 mph 34.5 mph N/A   Clear
2:42 PM 44.6 °F 38.4 °F 10.4 °F 25% 30.34 in 10.0 mi SSW 12.7 mph 29.9 mph N/A   Clear
3:02 PM 44.6 °F 36.1 °F 10.4 °F 25% 30.33 in 10.0 mi SW 21.9 mph 40.3 mph N/A   Clear
3:22 PM 46.4 °F 38.3 °F 12.2 °F 25% 30.33 in 10.0 mi SSW 23.0 mph 34.5 mph N/A   Clear
3:42 PM 46.4 °F 38.5 °F 12.2 °F 25% 30.32 in 10.0 mi SSW 21.9 mph 32.2 mph N/A   Clear
4:02 PM 46.4 °F 38.1 °F 14.0 °F 27% 30.32 in 10.0 mi SSW 24.2 mph 39.1 mph N/A   Clear
4:22 PM 44.6 °F 36.6 °F 10.4 °F 25% 30.31 in 10.0 mi SSW 19.6 mph 35.7 mph N/A   Scattered Clouds
4:42 PM 46.4 °F 38.5 °F 10.4 °F 23% 30.31 in 10.0 mi SW 21.9 mph 33.4 mph N/A   Clear
5:02 PM 46.4 °F 38.7 °F 8.6 °F 22% 30.31 in 10.0 mi SW 20.7 mph 42.6 mph N/A   Clear
5:22 PM 46.4 °F 40.1 °F 5.0 °F 18% 30.31 in 10.0 mi SW 15.0 mph 42.6 mph N/A   Clear
5:42 PM 46.4 °F 39.8 °F 5.0 °F 18% 30.30 in 10.0 mi SSW 16.1 mph 39.1 mph N/A   Clear
6:02 PM 46.4 °F 39.8 °F 5.0 °F 18% 30.30 in 10.0 mi SW 16.1 mph 39.1 mph N/A   Clear
6:22 PM 46.4 °F 38.1 °F 5.0 °F 18% 30.29 in 10.0 mi SW 24.2 mph 40.3 mph N/A   Clear
6:42 PM 44.6 °F 36.4 °F 3.2 °F 18% 30.29 in 10.0 mi SW 20.7 mph 42.6 mph N/A   Clear
7:02 PM 44.6 °F 36.6 °F 1.4 °F 17% 30.30 in 10.0 mi SSW 19.6 mph 46.0 mph N/A   Clear
7:22 PM 44.6 °F 36.1 °F 3.2 °F 18% 30.30 in 10.0 mi SW 21.9 mph 39.1 mph N/A   Clear
7:42 PM 42.8 °F 34.5 °F 5.0 °F 21% 30.31 in 10.0 mi SW 18.4 mph 31.1 mph N/A   Clear
8:02 PM 42.8 °F 33.1 °F 3.2 °F 19% 30.30 in 10.0 mi SW 25.3 mph - N/A   Clear
8:22 PM 41.0 °F 31.4 °F 3.2 °F 21% 30.30 in 10.0 mi SW 21.9 mph 33.4 mph N/A   Clear
8:42 PM 41.0 °F 31.4 °F 3.2 °F 21% 30.31 in 10.0 mi SW 21.9 mph 31.1 mph N/A   Clear
9:02 PM 41.0 °F 30.9 °F 1.4 °F 19% 30.30 in 10.0 mi SW 24.2 mph 35.7 mph N/A   Clear
9:22 PM 41.0 °F 33.1 °F 3.2 °F 21% 30.31 in 10.0 mi SSW 15.0 mph 26.5 mph N/A   Clear
9:42 PM 39.2 °F 31.2 °F 3.2 °F 22% 30.32 in 10.0 mi SW 13.8 mph 25.3 mph N/A   Clear
10:02 PM 39.2 °F 31.6 °F 3.2 °F 22% 30.32 in 10.0 mi SSW 12.7 mph 20.7 mph N/A   Clear
10:22 PM 37.4 °F 30.3 °F 3.2 °F 24% 30.32 in 10.0 mi SW 10.4 mph 23.0 mph N/A   Clear
10:42 PM 37.4 °F 29.3 °F 3.2 °F 24% 30.32 in 10.0 mi SW 12.7 mph 19.6 mph N/A   Clear
11:02 PM 37.4 °F 30.3 °F 5.0 °F 26% 30.33 in 10.0 mi SSW 10.4 mph - N/A   Clear
11:22 PM 35.6 °F 27.5 °F 5.0 °F 28% 30.33 in 10.0 mi SSW 11.5 mph - N/A   Clear
11:42 PM 35.6 °F 27.5 °F 5.0 °F 28% 30.33 in 10.0 mi SSW 11.5 mph - N/A   Clear